Time;durP1;ratioP1;P1;durP2;ratioP2;P2;SDS_P1;SDS_P2;PMS_P1;PMS_P2;Temp;Humidity;BMP_temperature;BMP_pressure;BME280_temperature;BME280_humidity;BME280_pressure;Samples;Min_cycle;Max_cycle;Signal;HPM_P1;HPM_P2
2023/06/10 00:01:16;;;;;;;20.90;11.10;;;;;;;15.77;100.00;100629.48;105942;1254;63847;-86
2023/06/10 00:03:44;;;;;;;11.50;9.90;;;;;;;15.72;100.00;100628.95;105954;1256;72821;-88
2023/06/10 00:06:11;;;;;;;12.30;9.70;;;;;;;15.69;100.00;100629.86;105772;1256;60631;-87
2023/06/10 00:08:39;;;;;;;10.90;8.90;;;;;;;15.66;100.00;100632.45;105957;1251;60541;-87
2023/06/10 00:11:07;;;;;;;18.70;9.90;;;;;;;15.63;100.00;100628.95;105995;1252;74983;-86
2023/06/10 00:13:34;;;;;;;17.20;9.00;;;;;;;15.60;100.00;100625.30;106077;1256;63838;-85
2023/06/10 00:16:01;;;;;;;13.10;10.20;;;;;;;15.58;100.00;100619.36;105973;1255;72622;-88
2023/06/10 00:18:31;;;;;;;16.50;10.70;;;;;;;15.55;100.00;100621.66;105928;1255;61955;-88
2023/06/10 00:21:04;;;;;;;18.70;10.50;;;;;;;15.51;100.00;100618.27;105979;1256;61804;-87
2023/06/10 00:23:31;;;;;;;11.20;10.00;;;;;;;15.49;100.00;100614.23;105834;1256;72525;-86
2023/06/10 00:25:59;;;;;;;15.30;10.70;;;;;;;15.46;100.00;100615.67;105983;1251;63861;-85
2023/06/10 00:28:26;;;;;;;18.10;10.80;;;;;;;15.44;100.00;100616.76;106062;1256;71325;-85
2023/06/10 00:30:53;;;;;;;18.60;11.00;;;;;;;15.41;100.00;100614.56;105950;1256;61082;-87
2023/06/10 00:33:20;;;;;;;18.50;10.70;;;;;;;15.38;100.00;100610.88;106080;1255;60461;-87
2023/06/10 00:35:48;;;;;;;39.80;12.10;;;;;;;15.36;100.00;100612.27;105922;1251;73821;-89
2023/06/10 00:38:15;;;;;;;39.70;12.60;;;;;;;15.35;100.00;100610.84;105978;1255;63909;-87
2023/06/10 00:40:43;;;;;;;36.50;11.90;;;;;;;15.32;100.00;100607.69;105863;1255;72623;-87
2023/06/10 00:43:09;;;;;;;43.40;12.10;;;;;;;15.29;100.00;100601.34;106005;1256;60759;-86
2023/06/10 00:45:36;;;;;;;29.00;11.60;;;;;;;15.27;100.00;100600.65;106143;1256;60419;-84
2023/06/10 00:48:03;;;;;;;18.00;11.30;;;;;;;15.25;100.00;100598.88;105852;1257;73912;-85
2023/06/10 00:50:31;;;;;;;24.90;10.40;;;;;;;15.23;100.00;100599.96;106017;1251;63996;-85
2023/06/10 00:52:58;;;;;;;19.50;10.80;;;;;;;15.20;100.00;100602.33;105965;1255;71423;-87
2023/06/10 00:55:27;;;;;;;17.50;10.60;;;;;;;15.17;100.00;100597.31;105889;1265;60556;-87
2023/06/10 00:57:55;;;;;;;23.00;12.00;;;;;;;15.13;100.00;100597.41;106074;1252;60351;-87
2023/06/10 01:00:22;;;;;;;23.60;11.80;;;;;;;15.10;100.00;100595.71;105926;1257;73096;-88
2023/06/10 01:02:52;;;;;;;20.30;10.70;;;;;;;15.08;100.00;100597.05;105907;1255;63730;-88
2023/06/10 01:05:20;;;;;;;24.70;12.30;;;;;;;15.07;100.00;100598.05;105927;1253;71545;-86
2023/06/10 01:08:10;;;;;;;20.20;11.40;;;;;;;15.05;100.00;100596.96;105895;1255;62050;-84
2023/06/10 01:10:48;;;;;;;20.10;11.10;;;;;;;15.04;100.00;100596.67;105905;1259;60491;-86
2023/06/10 01:13:16;;;;;;;19.20;11.00;;;;;;;15.02;100.00;100596.32;105893;1256;72782;-86
2023/06/10 01:15:43;;;;;;;17.20;10.40;;;;;;;15.00;100.00;100590.67;105926;1258;63944;-87
2023/06/10 01:18:14;;;;;;;25.00;10.60;;;;;;;14.98;100.00;100588.34;105948;1257;71742;-86
2023/06/10 01:20:42;;;;;;;25.10;12.10;;;;;;;14.97;100.00;100589.70;105818;1251;60928;-87
2023/06/10 01:23:11;;;;;;;31.70;11.60;;;;;;;14.94;100.00;100590.62;105933;1253;60450;-89
2023/06/10 01:25:44;;;;;;;33.40;12.40;;;;;;;14.92;100.00;100589.86;105902;1255;73725;-85
2023/06/10 01:28:34;;;;;;;40.60;12.40;;;;;;;14.90;100.00;100589.14;105940;1251;61582;-85
2023/06/10 01:31:33;;;;;;;28.70;12.10;;;;;;;14.87;100.00;100590.25;105982;1256;72381;-85
2023/06/10 01:34:02;;;;;;;23.80;11.60;;;;;;;14.85;100.00;100591.00;105920;1256;60741;-87
2023/06/10 01:36:29;;;;;;;18.70;11.20;;;;;;;14.82;100.00;100590.48;105827;1254;60547;-85
2023/06/10 01:38:58;;;;;;;22.70;11.60;;;;;;;14.81;100.00;100586.92;105878;1251;73705;-86
2023/06/10 01:41:25;;;;;;;20.30;10.30;;;;;;;14.79;100.00;100585.45;105924;1256;62704;-86
2023/06/10 01:43:52;;;;;;;26.60;14.00;;;;;;;14.77;100.00;100585.77;105725;1256;72714;-89
2023/06/10 01:46:21;;;;;;;31.30;11.80;;;;;;;14.76;100.00;100586.97;105894;1256;62084;-89
2023/06/10 01:48:48;;;;;;;22.30;10.70;;;;;;;14.75;100.00;100583.46;106042;1252;60541;-88
2023/06/10 01:51:16;;;;;;;17.90;10.60;;;;;;;14.76;100.00;100584.13;105952;1251;73670;-87
2023/06/10 01:53:43;;;;;;;15.90;10.70;;;;;;;14.76;100.00;100585.02;105928;1257;63933;-86
2023/06/10 01:56:16;;;;;;;19.00;11.10;;;;;;;14.75;100.00;100586.80;105894;1251;72775;-85
2023/06/10 01:58:43;;;;;;;24.60;11.00;;;;;;;14.75;100.00;100588.05;105729;1260;61934;-84
2023/06/10 02:01:11;;;;;;;20.70;11.70;;;;;;;14.74;100.00;100591.31;105822;1251;60540;-87
2023/06/10 02:03:39;;;;;;;22.10;11.50;;;;;;;14.74;100.00;100586.60;105883;1256;73716;-89
2023/06/10 02:06:06;;;;;;;20.50;12.00;;;;;;;14.74;100.00;100590.13;106065;1251;63851;-86
2023/06/10 02:08:33;;;;;;;19.00;11.50;;;;;;;14.73;100.00;100590.48;106851;1256;72666;-86
2023/06/10 02:11:00;;;;;;;17.60;12.00;;;;;;;14.74;100.00;100592.38;106935;1251;61138;-87
2023/06/10 02:13:29;;;;;;;24.20;12.20;;;;;;;14.74;100.00;100592.89;106226;1256;60342;-90
2023/06/10 02:15:57;;;;;;;14.90;11.00;;;;;;;14.75;100.00;100592.82;105883;1255;72884;-88
2023/06/10 02:18:28;;;;;;;20.80;12.30;;;;;;;14.77;100.00;100594.27;105802;1257;62871;-87
2023/06/10 02:20:55;;;;;;;19.30;12.70;;;;;;;14.77;100.00;100597.42;105893;1256;71105;-85
2023/06/10 02:23:22;;;;;;;24.90;12.10;;;;;;;14.77;100.00;100595.33;105859;1251;63482;-86
2023/06/10 02:25:49;;;;;;;18.10;11.60;;;;;;;14.78;100.00;100598.02;105639;1252;60481;-88
2023/06/10 02:28:16;;;;;;;22.20;13.10;;;;;;;14.79;100.00;100595.69;106203;1251;74059;-86
2023/06/10 02:30:43;;;;;;;20.30;12.20;;;;;;;14.81;100.00;100589.73;108554;1251;64005;-86
2023/06/10 02:33:10;;;;;;;22.40;11.90;;;;;;;14.83;100.00;100593.61;109638;1251;71302;-88
2023/06/10 02:35:38;;;;;;;22.50;13.80;;;;;;;14.85;100.00;100595.35;108281;1251;61832;-87
2023/06/10 02:38:05;;;;;;;21.90;14.20;;;;;;;14.87;100.00;100596.45;108141;1251;59296;-88
2023/06/10 02:40:33;;;;;;;23.70;14.30;;;;;;;14.89;100.00;100594.46;108643;1251;74349;-85
2023/06/10 02:43:00;;;;;;;24.20;14.70;;;;;;;14.92;100.00;100596.20;107992;1255;62688;-84
2023/06/10 02:45:27;;;;;;;25.90;13.80;;;;;;;14.96;100.00;100595.07;106940;1254;71650;-86
2023/06/10 02:47:55;;;;;;;21.80;13.10;;;;;;;14.98;100.00;100595.38;106796;1251;60750;-86
2023/06/10 02:50:22;;;;;;;18.30;12.80;;;;;;;15.01;100.00;100598.14;106019;1251;60342;-89
2023/06/10 02:53:03;;;;;;;20.40;12.40;;;;;;;15.04;100.00;100597.02;105915;1252;72596;-86
2023/06/10 02:55:32;;;;;;;23.80;14.40;;;;;;;15.08;100.00;100597.80;106057;1251;63801;-85
2023/06/10 02:58:01;;;;;;;25.60;15.20;;;;;;;15.12;100.00;100597.98;106357;1251;71359;-89
2023/06/10 03:00:28;;;;;;;24.20;14.60;;;;;;;15.17;100.00;100594.30;106417;1252;62036;-85
2023/06/10 03:02:57;;;;;;;21.80;14.80;;;;;;;15.21;100.00;100597.14;105980;1251;60431;-86
2023/06/10 03:05:26;;;;;;;25.10;18.70;;;;;;;15.25;100.00;100599.05;105912;1255;73842;-85
2023/06/10 03:07:55;;;;;;;37.70;19.30;;;;;;;15.30;100.00;100595.02;105910;1255;63875;-87
2023/06/10 03:10:22;;;;;;;26.70;18.00;;;;;;;15.36;100.00;100595.06;106031;1251;72769;-84
2023/06/10 03:12:50;;;;;;;30.30;17.10;;;;;;;15.42;100.00;100590.48;105886;1264;61952;-84
2023/06/10 03:15:20;;;;;;;35.10;17.30;;;;;;;15.49;100.00;100590.25;106659;1251;60380;-85
2023/06/10 03:17:47;;;;;;;30.20;16.50;;;;;;;15.57;100.00;100583.84;107820;1251;72632;-86
2023/06/10 03:20:15;;;;;;;29.30;17.70;;;;;;;15.64;100.00;100583.05;106261;1251;63897;-85
2023/06/10 03:22:43;;;;;;;31.30;18.70;;;;;;;15.71;100.00;100584.94;106943;1251;71570;-85
2023/06/10 03:25:13;;;;;;;28.40;17.10;;;;;;;15.79;100.00;100585.38;108029;1251;61207;-83
2023/06/10 03:27:42;;;;;;;30.60;17.50;;;;;;;15.87;100.00;100584.88;108114;1251;60446;-84
2023/06/10 03:30:12;;;;;;;28.30;17.20;;;;;;;15.96;100.00;100584.91;107405;1251;72965;-87
2023/06/10 03:32:40;;;;;;;29.40;17.00;;;;;;;16.05;100.00;100587.88;105774;1257;62684;-88
2023/06/10 03:35:08;;;;;;;27.70;17.50;;;;;;;16.14;100.00;100584.38;105937;1251;72711;-87
2023/06/10 03:37:36;;;;;;;25.40;17.10;;;;;;;16.24;100.00;100578.32;106075;1251;61985;-86
2023/06/10 03:40:05;;;;;;;32.10;18.20;;;;;;;16.34;100.00;100576.73;105966;1251;60447;-85
2023/06/10 03:42:33;;;;;;;26.60;17.00;;;;;;;16.44;100.00;100570.40;105908;1251;73722;-86
2023/06/10 03:45:00;;;;;;;27.50;17.10;;;;;;;16.54;100.00;100572.01;105814;1257;63849;-89
2023/06/10 03:47:36;;;;;;;34.80;18.20;;;;;;;16.65;100.00;100573.73;105984;1251;72535;-85
2023/06/10 03:50:06;;;;;;;27.50;17.00;;;;;;;16.77;100.00;100578.04;105978;1256;62515;-89
2023/06/10 03:52:35;;;;;;;34.60;17.20;;;;;;;16.88;100.00;100581.90;105981;1252;60463;-87
2023/06/10 03:55:03;;;;;;;23.00;16.80;;;;;;;16.98;100.00;100577.44;106019;1257;73615;-86
2023/06/10 03:57:31;;;;;;;26.00;16.20;;;;;;;17.10;100.00;100581.55;106046;1257;63929;-90
2023/06/10 03:59:58;;;;;;;23.40;15.10;;;;;;;17.22;100.00;100581.52;105971;1253;72508;-86
2023/06/10 04:02:25;;;;;;;27.40;17.00;;;;;;;17.33;100.00;100581.08;106118;1251;60747;-87
2023/06/10 04:07:06;;;;;;;30.80;16.70;;;;;;;17.58;100.00;100573.86;102883;1292;600364;-84
2023/06/10 04:09:36;;;;;;;24.10;16.80;;;;;;;17.71;100.00;100575.54;105070;1266;60410;-85
2023/06/10 04:12:08;;;;;;;33.40;17.10;;;;;;;17.86;100.00;100573.88;105157;1266;60316;-88
2023/06/10 04:14:37;;;;;;;37.30;16.70;;;;;;;18.01;100.00;100575.10;105087;1266;72244;-88
2023/06/10 04:17:08;;;;;;;29.70;17.00;;;;;;;18.18;100.00;100573.71;105428;1265;65777;-87
2023/06/10 04:19:36;;;;;;;31.50;17.80;;;;;;;18.36;100.00;100573.70;105015;1260;629300;-87
2023/06/10 04:22:05;;;;;;;33.40;16.60;;;;;;;18.53;100.00;100579.84;105721;1257;60488;-90
2023/06/10 04:24:33;;;;;;;35.30;16.00;;;;;;;18.72;100.00;100584.98;105582;1257;61010;-86
2023/06/10 04:27:00;;;;;;;29.70;17.40;;;;;;;18.90;100.00;100581.13;105787;1256;71049;-86
2023/06/10 04:29:28;;;;;;;31.10;16.30;;;;;;;19.08;100.00;100584.89;105611;1257;62631;-85
2023/06/10 04:31:56;;;;;;;24.40;15.90;;;;;;;19.28;100.00;100583.91;105462;1257;71528;-91
2023/06/10 04:34:25;;;;;;;22.60;14.80;;;;;;;19.46;100.00;100587.79;106055;1253;61299;-89
2023/06/10 04:36:53;;;;;;;25.70;15.20;;;;;;;19.63;100.00;100585.06;106044;1253;62246;-88
2023/06/10 04:39:23;;;;;;;20.60;13.90;;;;;;;19.80;100.00;100586.71;106126;1257;73590;-87
2023/06/10 04:41:51;;;;;;;22.40;11.40;;;;;;;19.98;100.00;100585.16;106276;1254;63509;-87
2023/06/10 04:44:18;;;;;;;19.00;10.20;;;;;;;20.16;100.00;100585.52;106238;1253;72873;-87
2023/06/10 04:46:46;;;;;;;15.70;10.30;;;;;;;20.37;100.00;100590.84;106080;1252;61774;-91
2023/06/10 04:49:15;;;;;;;23.00;11.30;;;;;;;20.61;100.00;100594.06;106043;1251;59643;-85
2023/06/10 04:51:42;;;;;;;23.60;12.20;;;;;;;20.85;100.00;100586.92;106454;1252;71837;-89
2023/06/10 04:54:10;;;;;;;18.90;10.90;;;;;;;21.11;100.00;100584.81;106800;1252;63832;-87
2023/06/10 04:56:39;;;;;;;16.80;10.60;;;;;;;21.35;100.00;100587.98;106131;1253;73130;-89
2023/06/10 04:59:09;;;;;;;14.60;8.90;;;;;;;21.59;100.00;100582.09;106414;1253;61699;-89
2023/06/10 05:13:26;;;;;;;12.70;8.50;;;;;;;23.01;98.35;100572.33;103343;1286;600830;-88
2023/06/10 05:15:54;;;;;;;14.00;8.30;;;;;;;23.15;97.22;100571.83;104889;1267;59280;-89
2023/06/10 05:18:21;;;;;;;15.30;8.10;;;;;;;23.26;96.51;100569.16;104800;1265;59598;-91
2023/06/10 05:20:49;;;;;;;13.30;7.30;;;;;;;23.37;96.05;100573.17;105627;1254;74756;-90
2023/06/10 05:23:16;;;;;;;16.80;8.00;;;;;;;23.48;96.15;100571.96;105970;1254;62893;-91
2023/06/10 05:25:44;;;;;;;13.60;8.20;;;;;;;23.58;95.37;100570.80;105926;1254;72532;-87
2023/06/10 05:28:12;;;;;;;10.90;7.90;;;;;;;23.67;93.80;100566.72;105845;1256;683267;-90
2023/06/10 05:30:50;;;;;;;20.00;8.50;;;;;;;23.69;92.42;100565.60;109794;1251;58781;-86
2023/06/10 05:33:19;;;;;;;17.30;9.10;;;;;;;23.69;91.33;100566.66;108595;1257;71183;-84
2023/06/10 05:35:46;;;;;;;14.20;8.00;;;;;;;23.72;91.19;100568.98;107775;1251;63696;-88
2023/06/10 05:38:14;;;;;;;18.10;11.90;;;;;;;23.76;91.08;100564.25;107056;1251;73224;-89
2023/06/10 05:40:42;;;;;;;15.40;9.00;;;;;;;23.81;90.24;100567.40;106102;1257;59669;-90
2023/06/10 05:43:10;;;;;;;19.00;8.30;;;;;;;23.91;89.22;100563.60;106145;1251;60115;-89
2023/06/10 05:45:40;;;;;;;16.60;7.90;;;;;;;24.05;88.34;100563.85;106349;1257;72999;-89
2023/06/10 05:48:08;;;;;;;13.30;8.70;;;;;;;24.23;86.97;100560.86;106574;1256;63892;-90
2023/06/10 05:50:38;;;;;;;17.00;7.80;;;;;;;24.44;86.05;100561.27;106705;1257;71261;-91
2023/06/10 05:53:08;;;;;;;13.10;7.90;;;;;;;24.69;85.71;100560.02;107002;1257;60958;-91
2023/06/10 05:55:39;;;;;;;15.90;7.40;;;;;;;24.99;84.20;100560.81;106364;1251;60116;-89
2023/06/10 05:58:15;;;;;;;21.10;11.00;;;;;;;25.29;83.50;100557.05;106187;1260;71851;-91
2023/06/10 06:00:43;;;;;;;17.80;10.50;;;;;;;25.54;79.82;100551.87;106355;1251;62488;-88
2023/06/10 06:03:12;;;;;;;18.70;8.90;;;;;;;25.79;76.38;100550.39;106431;1251;72635;-86
2023/06/10 06:05:43;;;;;;;15.80;10.50;;;;;;;26.08;74.99;100549.45;107228;1250;59765;-86
2023/06/10 06:08:11;;;;;;;16.60;8.60;;;;;;;26.43;73.55;100547.33;107176;1251;59663;-91
2023/06/10 06:10:42;;;;;;;18.10;7.50;;;;;;;26.76;70.95;100547.29;107003;1256;71595;-88
2023/06/10 06:13:10;;;;;;;16.10;7.40;;;;;;;27.01;67.44;100543.77;106253;1251;65008;-84
2023/06/10 06:15:38;;;;;;;11.10;6.40;;;;;;;27.26;67.04;100544.66;106158;1256;72700;-89
2023/06/10 06:18:06;;;;;;;10.80;6.90;;;;;;;27.50;64.91;100546.02;106611;1252;60126;-92
2023/06/10 06:20:34;;;;;;;7.30;6.40;;;;;;;27.67;63.72;100542.85;106008;1257;60154;-90
2023/06/10 06:23:01;;;;;;;13.00;6.80;;;;;;;27.76;61.03;100540.50;105960;1257;72964;-92
2023/06/10 06:25:29;;;;;;;11.00;7.10;;;;;;;27.85;60.68;100537.61;106060;1256;63544;-92
2023/06/10 06:27:56;;;;;;;13.60;7.30;;;;;;;28.08;58.03;100536.19;106348;1253;71339;-88
2023/06/10 06:30:24;;;;;;;6.40;4.60;;;;;;;28.29;57.52;100535.38;106135;1253;61727;-91
2023/06/10 06:32:53;;;;;;;8.70;5.70;;;;;;;28.50;56.41;100535.39;106653;1251;61554;-90
2023/06/10 06:35:20;;;;;;;12.70;6.10;;;;;;;28.71;54.09;100529.96;106749;1251;73266;-89
2023/06/10 06:37:48;;;;;;;11.00;5.50;;;;;;;28.93;52.50;100526.38;106279;1251;63284;-91
2023/06/10 06:40:19;;;;;;;15.00;10.30;;;;;;;29.11;52.71;100524.10;106355;1257;74065;-93
2023/06/10 06:42:47;;;;;;;83.40;75.20;;;;;;;29.44;51.33;100522.16;106307;1253;59682;-90
2023/06/10 06:45:36;;;;;;;12.20;8.50;;;;;;;29.66;48.66;100513.98;106043;1251;59774;-90
2023/06/10 07:00:08;;;;;;;7.30;4.60;;;;;;;30.76;43.03;100507.11;103042;1291;616722;-88
2023/06/10 07:02:37;;;;;;;8.90;4.00;;;;;;;31.13;42.20;100507.42;105695;1266;60739;-90
2023/06/10 07:05:05;;;;;;;8.80;6.20;;;;;;;31.39;40.60;100506.39;105394;1266;59225;-88
2023/06/10 07:07:32;;;;;;;4.80;3.70;;;;;;;31.65;40.07;100506.97;105479;1267;72197;-90
2023/06/10 07:09:59;;;;;;;9.00;4.20;;;;;;;31.84;39.62;100497.64;105466;1269;63918;-89
2023/06/10 07:12:27;;;;;;;5.60;3.70;;;;;;;31.97;37.18;100496.50;105472;1256;675613;-89
2023/06/10 07:14:54;;;;;;;5.40;3.60;;;;;;;32.03;36.12;100497.25;105973;1256;60430;-88
2023/06/10 07:17:21;;;;;;;15.40;4.10;;;;;;;32.10;35.93;100492.90;106125;1257;60414;-92
2023/06/10 07:19:51;;;;;;;12.90;6.20;;;;;;;32.21;36.20;100491.90;106187;1261;72152;-88
2023/06/10 07:22:18;;;;;;;6.20;4.60;;;;;;;32.32;35.55;100491.54;105801;1256;62453;-90
2023/06/10 07:24:45;;;;;;;6.10;3.50;;;;;;;32.36;34.82;100494.02;105989;1257;72867;-88
2023/06/10 07:27:13;;;;;;;7.00;3.80;;;;;;;32.48;34.25;100492.03;105799;1257;59778;-87
2023/06/10 07:29:40;;;;;;;8.90;3.00;;;;;;;32.62;33.94;100490.43;105723;1257;61132;-88
2023/06/10 07:32:07;;;;;;;12.10;3.30;;;;;;;32.75;32.78;100491.16;105682;1259;71865;-90
2023/06/10 07:34:34;;;;;;;3.30;3.00;;;;;;;32.80;32.85;100488.66;105969;1259;63911;-90
2023/06/10 07:37:01;;;;;;;6.80;2.60;;;;;;;32.87;32.13;100487.31;105970;1256;71733;-89
2023/06/10 07:39:32;;;;;;;5.30;3.00;;;;;;;32.92;31.51;100487.91;105851;1258;60163;-95
2023/06/10 07:41:58;;;;;;;4.60;2.80;;;;;;;33.00;31.44;100480.98;105987;1259;60199;-91
2023/06/10 07:44:26;;;;;;;19.10;10.50;;;;;;;33.08;31.09;100481.25;105976;1254;72954;-88
2023/06/10 07:46:53;;;;;;;9.40;5.50;;;;;;;33.07;31.52;100479.61;106367;1253;62602;-90
2023/06/10 07:49:21;;;;;;;5.40;3.30;;;;;;;33.08;30.72;100478.21;106475;1254;72589;-87
2023/06/10 07:51:48;;;;;;;9.20;3.70;;;;;;;33.12;31.56;100476.39;106078;1257;59725;-93
2023/06/10 07:54:15;;;;;;;4.70;3.30;;;;;;;33.22;31.44;100477.27;105956;1256;59949;-90
2023/06/10 07:56:44;;;;;;;9.20;2.80;;;;;;;33.25;30.30;100478.46;105991;1253;71669;-88
2023/06/10 07:59:11;;;;;;;10.40;2.70;;;;;;;33.23;29.92;100479.73;105928;1254;63053;-90
2023/06/10 08:01:39;;;;;;;5.90;2.60;;;;;;;33.15;30.23;100478.40;106003;1256;72688;-85
2023/06/10 08:04:09;;;;;;;7.00;3.30;;;;;;;33.13;30.39;100476.28;105965;1257;60470;-88
2023/06/10 08:06:36;;;;;;;5.90;3.20;;;;;;;33.14;30.32;100475.02;105914;1255;59542;-87
2023/06/10 08:09:03;;;;;;;4.80;2.70;;;;;;;33.25;30.70;100476.18;105942;1256;71780;-92
2023/06/10 08:11:30;;;;;;;6.40;2.90;;;;;;;33.41;30.14;100470.34;105971;1256;63996;-89
2023/06/10 08:13:59;;;;;;;10.30;2.90;;;;;;;33.68;30.22;100468.08;105976;1253;72646;-93
2023/06/10 08:16:25;;;;;;;8.00;3.10;;;;;;;34.06;30.22;100465.09;105880;1253;60311;-92
2023/06/10 08:18:52;;;;;;;7.80;3.00;;;;;;;34.44;29.60;100460.95;105878;1253;60126;-88
2023/06/10 08:21:22;;;;;;;24.40;4.60;;;;;;;34.82;28.87;100457.25;105862;1256;73105;-86
2023/06/10 08:23:53;;;;;;;7.80;3.20;;;;;;;35.10;29.26;100457.59;106199;1256;63820;-89
2023/06/10 08:26:20;;;;;;;6.90;3.00;;;;;;;35.35;28.64;100454.36;106117;1257;72720;-90
2023/06/10 08:28:49;;;;;;;7.00;3.20;;;;;;;35.53;28.09;100452.95;109368;1253;60459;-90
2023/06/10 08:31:16;;;;;;;11.70;3.20;;;;;;;35.67;28.08;100452.16;109495;1254;59313;-88
2023/06/10 08:33:43;;;;;;;7.80;2.50;;;;;;;35.75;27.24;100452.43;106466;1251;72984;-89
2023/06/10 08:36:09;;;;;;;8.90;3.30;;;;;;;35.84;26.36;100445.39;106974;1253;62421;-88
2023/06/10 08:38:36;;;;;;;6.70;3.60;;;;;;;35.92;26.19;100443.89;106046;1256;72732;-88
2023/06/10 08:41:05;;;;;;;4.40;2.60;;;;;;;35.99;26.29;100437.48;105948;1256;61289;-90
2023/06/10 08:43:46;;;;;;;7.50;3.00;;;;;;;36.07;26.26;100436.60;105979;1255;60117;-90
2023/06/10 08:46:13;;;;;;;6.30;3.30;;;;;;;36.15;25.82;100436.53;106073;1255;71787;-89
2023/06/10 08:48:44;;;;;;;7.30;2.70;;;;;;;36.27;25.87;100437.58;105965;1256;63782;-87
2023/06/10 08:51:11;;;;;;;5.20;2.80;;;;;;;36.50;25.35;100436.45;105889;1256;72709;-88
2023/06/10 08:53:41;;;;;;;6.70;2.50;;;;;;;36.70;25.55;100436.89;105950;1257;59713;-92
2023/06/10 08:56:08;;;;;;;8.90;3.00;;;;;;;36.93;25.26;100431.51;106073;1256;59618;-89
2023/06/10 08:58:40;;;;;;;4.70;2.70;;;;;;;37.21;25.06;100428.19;106028;1253;64373;-87
2023/06/10 09:01:08;;;;;;;7.10;2.50;;;;;;;37.58;24.65;100430.10;106015;1256;63165;-91
2023/06/10 09:03:37;;;;;;;6.50;2.40;;;;;;;37.83;22.53;100431.67;106015;1254;65490;-90
2023/06/10 09:06:04;;;;;;;6.00;2.90;;;;;;;37.85;21.88;100420.61;106099;1256;59705;-90
2023/06/10 09:08:33;;;;;;;6.50;2.80;;;;;;;37.64;22.19;100421.38;106130;1265;59651;-91
2023/06/10 09:11:00;;;;;;;6.70;4.50;;;;;;;37.32;21.28;100430.33;106008;1257;64248;-88
2023/06/10 09:13:29;;;;;;;13.50;4.90;;;;;;;36.83;21.60;100421.39;105871;1256;59625;-89
2023/06/10 09:16:00;;;;;;;9.70;4.10;;;;;;;36.25;21.99;100421.77;105891;1257;63932;-91
2023/06/10 09:18:28;;;;;;;11.00;3.40;;;;;;;35.71;21.84;100419.86;105996;1257;60160;-90
2023/06/10 09:20:55;;;;;;;8.70;5.40;;;;;;;35.24;22.00;100419.27;106037;1258;59616;-88
2023/06/10 09:23:22;;;;;;;11.60;5.00;;;;;;;34.93;22.98;100415.98;106211;1252;73091;-88
2023/06/10 09:25:57;;;;;;;12.40;3.50;;;;;;;34.87;23.80;100411.90;105981;1255;63605;-89
2023/06/10 09:28:25;;;;;;;6.30;3.10;;;;;;;34.99;24.29;100411.95;106048;1251;72520;-89
2023/06/10 09:31:05;;;;;;;7.30;3.70;;;;;;;35.14;24.16;100403.91;106018;1251;60541;-88
2023/06/10 09:33:35;;;;;;;8.90;3.70;;;;;;;35.40;25.03;100410.44;106033;1256;59613;-92
2023/06/10 09:36:06;;;;;;;7.70;3.40;;;;;;;35.62;24.71;100405.91;105885;1257;75226;-90
2023/06/10 09:38:34;;;;;;;5.40;2.60;;;;;;;35.81;23.77;100403.13;105825;1257;63886;-90
2023/06/10 09:41:03;;;;;;;8.30;2.40;;;;;;;35.97;22.75;100399.25;105993;1255;72692;-91
2023/06/10 09:43:41;;;;;;;8.00;2.80;;;;;;;36.10;22.67;100396.38;105862;1257;59611;-89
2023/06/10 09:46:17;;;;;;;3.80;2.20;;;;;;;36.21;21.97;100397.79;105993;1255;60570;-93
2023/06/10 09:48:47;;;;;;;14.90;3.10;;;;;;;36.09;21.92;100394.46;106083;1256;64896;-92
2023/06/10 09:51:17;;;;;;;7.40;3.20;;;;;;;35.86;22.64;100393.00;106093;1256;63998;-89
2023/06/10 09:53:49;;;;;;;9.30;2.70;;;;;;;35.55;23.05;100389.75;106101;1251;72909;-92
2023/06/10 09:56:16;;;;;;;6.10;2.50;;;;;;;35.23;23.10;100389.32;106423;1258;59851;-90
2023/06/10 09:58:45;;;;;;;7.90;3.40;;;;;;;34.92;23.37;100382.45;107003;1256;60204;-90
2023/06/10 10:01:15;;;;;;;4.40;2.90;;;;;;;34.64;23.96;100386.06;108165;1251;72842;-90
2023/06/10 10:03:50;;;;;;;12.00;3.00;;;;;;;34.40;24.64;100386.55;109215;1251;62736;-87
2023/06/10 10:06:19;;;;;;;6.90;2.40;;;;;;;34.23;24.43;100383.92;108804;1255;71441;-89
2023/06/10 10:08:47;;;;;;;6.40;2.10;;;;;;;34.15;24.71;100387.49;107674;1251;59526;-87
2023/06/10 10:11:18;;;;;;;8.80;2.40;;;;;;;34.13;24.43;100388.39;107885;1251;59141;-88
2023/06/10 10:13:46;;;;;;;5.30;2.20;;;;;;;34.10;23.44;100377.66;106608;1256;71902;-89
2023/06/10 10:16:21;;;;;;;7.00;2.20;;;;;;;34.06;23.01;100376.73;106614;1257;63672;-90
2023/06/10 10:18:58;;;;;;;5.90;1.60;;;;;;;34.05;23.14;100378.95;106954;1251;71475;-90
2023/06/10 10:21:32;;;;;;;8.70;1.80;;;;;;;34.05;23.02;100375.90;109282;1251;59500;-89
2023/06/10 10:24:16;;;;;;;6.20;1.90;;;;;;;34.06;22.34;100371.73;109435;1251;59741;-85
2023/06/10 10:26:43;;;;;;;7.90;2.20;;;;;;;34.13;22.38;100370.08;109384;1251;72089;-88
2023/06/10 10:29:29;;;;;;;7.30;2.50;;;;;;;34.26;21.72;100361.58;107467;1251;62777;-87
2023/06/10 10:32:00;;;;;;;9.10;2.90;;;;;;;34.48;21.91;100359.67;109583;1251;73536;-87
2023/06/10 10:34:47;;;;;;;4.10;1.90;;;;;;;34.73;21.97;100366.48;109698;1251;59019;-87
2023/06/10 10:37:17;;;;;;;3.50;1.80;;;;;;;35.06;21.23;100359.72;109638;1251;59546;-88
2023/06/10 10:39:44;;;;;;;4.60;1.80;;;;;;;35.37;21.33;100359.08;109529;1251;71752;-87
2023/06/10 10:42:11;;;;;;;4.00;1.50;;;;;;;35.70;20.23;100361.04;109301;1251;63025;-91
2023/06/10 10:44:39;;;;;;;5.40;2.80;;;;;;;35.87;20.32;100359.32;108635;1251;71892;-88
2023/06/10 10:47:09;;;;;;;9.10;1.70;;;;;;;35.98;20.33;100351.22;108514;1251;59545;-88
2023/06/10 10:49:37;;;;;;;3.00;1.90;;;;;;;36.03;20.20;100353.92;108669;1251;59166;-88
2023/06/10 10:52:07;;;;;;;5.40;2.40;;;;;;;36.00;21.05;100351.35;108530;1251;71648;-87
2023/06/10 10:54:35;;;;;;;8.50;1.90;;;;;;;36.03;20.41;100357.14;108187;1251;58285;-88
2023/06/10 10:57:19;;;;;;;7.20;2.20;;;;;;;36.04;20.94;100356.48;108424;1252;71707;-88
2023/06/10 10:59:49;;;;;;;9.80;2.10;;;;;;;35.95;21.34;100354.27;107415;1257;59635;-88
2023/06/10 11:02:32;;;;;;;7.40;3.20;;;;;;;35.72;21.05;100351.94;106064;1257;59605;-88
2023/06/10 11:05:00;;;;;;;12.50;4.50;;;;;;;35.57;21.52;100353.00;106137;1254;71561;-91
2023/06/10 11:07:31;;;;;;;9.50;2.60;;;;;;;35.32;22.06;100352.13;106411;1253;62642;-88
2023/06/10 11:10:00;;;;;;;6.60;2.30;;;;;;;35.05;22.29;100353.50;106189;1258;71449;-89
2023/06/10 11:12:55;;;;;;;3.40;1.90;;;;;;;34.88;22.51;100349.45;106044;1251;60429;-89
2023/06/10 11:15:23;;;;;;;3.70;2.50;;;;;;;34.76;22.76;100345.92;106315;1251;60524;-89
2023/06/10 11:18:10;;;;;;;7.00;2.90;;;;;;;34.67;23.22;100340.77;106047;1260;75811;-91
2023/06/10 11:20:49;;;;;;;6.70;2.90;;;;;;;34.51;23.18;100340.05;106283;1251;63941;-90
2023/06/10 11:23:32;;;;;;;6.40;2.40;;;;;;;34.32;23.86;100338.52;106286;1251;72535;-87
2023/06/10 11:26:31;;;;;;;5.80;2.50;;;;;;;34.09;23.02;100337.04;106941;1251;60274;-87
2023/06/10 11:28:57;;;;;;;6.00;2.80;;;;;;;33.78;23.38;100330.14;109790;1251;59051;-88
2023/06/10 11:31:41;;;;;;;12.20;2.80;;;;;;;33.57;24.13;100334.42;107868;1252;72325;-88
2023/06/10 11:34:08;;;;;;;5.40;1.80;;;;;;;33.34;24.08;100331.52;106161;1251;64019;-92
2023/06/10 11:36:40;;;;;;;6.40;1.90;;;;;;;33.11;23.61;100325.42;106340;1251;72678;-89
2023/06/10 11:39:07;;;;;;;4.40;2.90;;;;;;;32.87;24.27;100329.44;106203;1251;60417;-89
2023/06/10 11:41:35;;;;;;;6.70;2.60;;;;;;;32.62;24.07;100331.09;106300;1251;60506;-89